Terminal Aerodrome Forecast
Issued by NWS

Home | Current Version | Previous Version | Graphics & Text | Print | Product List | Glossary On
Versions: 1 2 3 4 5 6 7 8 9 10 11 12 13 14
000
FTUS43 KGRB 042300
TAFAUW
TAF
KAUW 042322Z 0500/0524 VRB04KT P6SM BKN200
     FM050900 09005KT P6SM SCT060 BKN200
     FM051500 11010KT P6SM FEW060 BKN200
     FM052100 11009KT P6SM BKN090 OVC150=

USA.gov is the U.S. government's official web portal to all federal, state and local government web resources and services.